sensor_id;sensor_type;location;lat;lon;timestamp;P1;durP1;ratioP1;P2;durP2;ratioP2
21677;SDS011;11000;50.360;7.582;2023-11-18T00:01:52;43.10;;;22.83;;
21677;SDS011;11000;50.360;7.582;2023-11-18T00:04:13;47.20;;;23.00;;
21677;SDS011;11000;50.360;7.582;2023-11-18T00:06:35;47.97;;;23.93;;
21677;SDS011;11000;50.360;7.582;2023-11-18T00:08:56;44.77;;;24.23;;
21677;SDS011;11000;50.360;7.582;2023-11-18T00:11:16;56.30;;;24.97;;
21677;SDS011;11000;50.360;7.582;2023-11-18T00:13:39;54.00;;;25.10;;
21677;SDS011;11000;50.360;7.582;2023-11-18T00:15:59;54.93;;;24.47;;
21677;SDS011;11000;50.360;7.582;2023-11-18T00:18:20;44.67;;;22.80;;
21677;SDS011;11000;50.360;7.582;2023-11-18T00:20:41;46.93;;;21.63;;
21677;SDS011;11000;50.360;7.582;2023-11-18T00:23:02;44.70;;;22.10;;
21677;SDS011;11000;50.360;7.582;2023-11-18T00:25:24;50.97;;;23.03;;
21677;SDS011;11000;50.360;7.582;2023-11-18T00:27:45;46.70;;;23.17;;
21677;SDS011;11000;50.360;7.582;2023-11-18T00:30:06;45.40;;;20.77;;
21677;SDS011;11000;50.360;7.582;2023-11-18T00:32:31;46.83;;;22.53;;
21677;SDS011;11000;50.360;7.582;2023-11-18T00:34:52;45.53;;;22.60;;
21677;SDS011;11000;50.360;7.582;2023-11-18T00:37:12;46.30;;;22.90;;
21677;SDS011;11000;50.360;7.582;2023-11-18T00:39:33;40.53;;;20.77;;
21677;SDS011;11000;50.360;7.582;2023-11-18T00:41:53;45.30;;;22.30;;
21677;SDS011;11000;50.360;7.582;2023-11-18T00:44:15;46.93;;;22.23;;
21677;SDS011;11000;50.360;7.582;2023-11-18T00:46:36;43.00;;;20.73;;
21677;SDS011;11000;50.360;7.582;2023-11-18T00:48:56;42.37;;;22.47;;
21677;SDS011;11000;50.360;7.582;2023-11-18T00:51:18;44.87;;;21.27;;
21677;SDS011;11000;50.360;7.582;2023-11-18T00:53:38;38.63;;;20.50;;
21677;SDS011;11000;50.360;7.582;2023-11-18T00:55:59;40.93;;;20.40;;
21677;SDS011;11000;50.360;7.582;2023-11-18T00:58:20;39.03;;;20.03;;
21677;SDS011;11000;50.360;7.582;2023-11-18T01:00:41;45.33;;;20.30;;
21677;SDS011;11000;50.360;7.582;2023-11-18T01:03:01;42.93;;;21.13;;
21677;SDS011;11000;50.360;7.582;2023-11-18T01:05:23;39.13;;;18.33;;
21677;SDS011;11000;50.360;7.582;2023-11-18T01:07:44;42.90;;;19.37;;
21677;SDS011;11000;50.360;7.582;2023-11-18T01:10:05;35.70;;;17.73;;
21677;SDS011;11000;50.360;7.582;2023-11-18T01:12:26;36.90;;;18.80;;
21677;SDS011;11000;50.360;7.582;2023-11-18T01:14:46;33.60;;;17.93;;
21677;SDS011;11000;50.360;7.582;2023-11-18T01:17:07;34.57;;;18.00;;
21677;SDS011;11000;50.360;7.582;2023-11-18T01:19:31;42.67;;;19.40;;
21677;SDS011;11000;50.360;7.582;2023-11-18T01:21:53;38.93;;;18.90;;
21677;SDS011;11000;50.360;7.582;2023-11-18T01:24:15;42.17;;;19.37;;
21677;SDS011;11000;50.360;7.582;2023-11-18T01:26:38;37.63;;;19.90;;
21677;SDS011;11000;50.360;7.582;2023-11-18T01:28:59;37.77;;;18.40;;
21677;SDS011;11000;50.360;7.582;2023-11-18T01:31:19;38.53;;;18.57;;
21677;SDS011;11000;50.360;7.582;2023-11-18T01:33:40;37.47;;;18.17;;
21677;SDS011;11000;50.360;7.582;2023-11-18T01:36:01;35.47;;;18.00;;
21677;SDS011;11000;50.360;7.582;2023-11-18T01:38:21;37.70;;;18.60;;
21677;SDS011;11000;50.360;7.582;2023-11-18T01:40:42;37.77;;;18.60;;
21677;SDS011;11000;50.360;7.582;2023-11-18T01:43:03;34.47;;;18.23;;
21677;SDS011;11000;50.360;7.582;2023-11-18T01:45:31;33.60;;;17.97;;
21677;SDS011;11000;50.360;7.582;2023-11-18T01:47:51;37.67;;;19.77;;
21677;SDS011;11000;50.360;7.582;2023-11-18T01:50:13;38.20;;;18.90;;
21677;SDS011;11000;50.360;7.582;2023-11-18T01:52:37;37.53;;;18.37;;
21677;SDS011;11000;50.360;7.582;2023-11-18T01:54:59;33.47;;;17.70;;
21677;SDS011;11000;50.360;7.582;2023-11-18T01:57:20;35.80;;;18.27;;
21677;SDS011;11000;50.360;7.582;2023-11-18T01:59:40;38.60;;;16.77;;
21677;SDS011;11000;50.360;7.582;2023-11-18T02:02:01;37.17;;;19.40;;
21677;SDS011;11000;50.360;7.582;2023-11-18T02:04:21;36.37;;;18.30;;
21677;SDS011;11000;50.360;7.582;2023-11-18T02:06:42;36.30;;;17.27;;
21677;SDS011;11000;50.360;7.582;2023-11-18T02:09:05;36.60;;;18.10;;
21677;SDS011;11000;50.360;7.582;2023-11-18T02:11:28;34.67;;;16.90;;
21677;SDS011;11000;50.360;7.582;2023-11-18T02:14:01;37.80;;;17.53;;
21677;SDS011;11000;50.360;7.582;2023-11-18T02:16:31;36.53;;;17.13;;
21677;SDS011;11000;50.360;7.582;2023-11-18T02:18:52;33.67;;;18.13;;
21677;SDS011;11000;50.360;7.582;2023-11-18T02:21:13;33.93;;;16.43;;
21677;SDS011;11000;50.360;7.582;2023-11-18T02:23:34;36.40;;;18.60;;
21677;SDS011;11000;50.360;7.582;2023-11-18T02:25:55;40.77;;;19.03;;
21677;SDS011;11000;50.360;7.582;2023-11-18T02:28:16;36.17;;;19.43;;
21677;SDS011;11000;50.360;7.582;2023-11-18T02:30:36;32.07;;;17.67;;
21677;SDS011;11000;50.360;7.582;2023-11-18T02:33:40;32.20;;;16.53;;
21677;SDS011;11000;50.360;7.582;2023-11-18T02:35:54;34.80;;;18.50;;
21677;SDS011;11000;50.360;7.582;2023-11-18T02:38:22;30.43;;;16.33;;
21677;SDS011;11000;50.360;7.582;2023-11-18T02:40:49;32.53;;;17.40;;
21677;SDS011;11000;50.360;7.582;2023-11-18T02:43:13;30.27;;;16.33;;
21677;SDS011;11000;50.360;7.582;2023-11-18T02:45:35;33.80;;;17.80;;
21677;SDS011;11000;50.360;7.582;2023-11-18T02:47:56;33.57;;;16.77;;
21677;SDS011;11000;50.360;7.582;2023-11-18T02:50:17;32.60;;;16.80;;
21677;SDS011;11000;50.360;7.582;2023-11-18T02:52:39;32.93;;;17.03;;
21677;SDS011;11000;50.360;7.582;2023-11-18T02:55:00;30.73;;;16.17;;
21677;SDS011;11000;50.360;7.582;2023-11-18T02:57:20;29.03;;;16.23;;
21677;SDS011;11000;50.360;7.582;2023-11-18T02:59:41;29.30;;;15.40;;
21677;SDS011;11000;50.360;7.582;2023-11-18T03:02:02;30.97;;;17.60;;
21677;SDS011;11000;50.360;7.582;2023-11-18T03:04:22;30.07;;;16.67;;
21677;SDS011;11000;50.360;7.582;2023-11-18T03:06:43;31.17;;;16.83;;
21677;SDS011;11000;50.360;7.582;2023-11-18T03:09:04;31.20;;;17.27;;
21677;SDS011;11000;50.360;7.582;2023-11-18T03:11:27;34.23;;;17.90;;
21677;SDS011;11000;50.360;7.582;2023-11-18T03:13:51;32.87;;;16.77;;
21677;SDS011;11000;50.360;7.582;2023-11-18T03:16:11;34.87;;;17.33;;
21677;SDS011;11000;50.360;7.582;2023-11-18T03:18:32;28.90;;;15.80;;
21677;SDS011;11000;50.360;7.582;2023-11-18T03:20:53;30.60;;;16.83;;
21677;SDS011;11000;50.360;7.582;2023-11-18T03:23:14;29.97;;;16.70;;
21677;SDS011;11000;50.360;7.582;2023-11-18T03:25:34;32.37;;;18.30;;
21677;SDS011;11000;50.360;7.582;2023-11-18T03:27:55;31.07;;;16.93;;
21677;SDS011;11000;50.360;7.582;2023-11-18T03:30:15;33.73;;;16.83;;
21677;SDS011;11000;50.360;7.582;2023-11-18T03:32:37;34.03;;;16.30;;
21677;SDS011;11000;50.360;7.582;2023-11-18T03:34:59;29.23;;;16.47;;
21677;SDS011;11000;50.360;7.582;2023-11-18T03:37:20;28.10;;;16.27;;
21677;SDS011;11000;50.360;7.582;2023-11-18T03:39:44;31.03;;;16.50;;
21677;SDS011;11000;50.360;7.582;2023-11-18T03:42:05;30.37;;;16.20;;
21677;SDS011;11000;50.360;7.582;2023-11-18T03:44:25;28.90;;;16.53;;
21677;SDS011;11000;50.360;7.582;2023-11-18T03:46:46;26.33;;;14.87;;
21677;SDS011;11000;50.360;7.582;2023-11-18T03:49:06;29.13;;;15.07;;
21677;SDS011;11000;50.360;7.582;2023-11-18T03:51:27;27.93;;;14.60;;
21677;SDS011;11000;50.360;7.582;2023-11-18T03:53:48;25.10;;;13.87;;
21677;SDS011;11000;50.360;7.582;2023-11-18T03:56:08;28.83;;;15.70;;
21677;SDS011;11000;50.360;7.582;2023-11-18T03:58:29;27.00;;;15.87;;
21677;SDS011;11000;50.360;7.582;2023-11-18T04:00:49;30.60;;;16.07;;
21677;SDS011;11000;50.360;7.582;2023-11-18T04:03:10;29.43;;;15.43;;
21677;SDS011;11000;50.360;7.582;2023-11-18T04:05:31;25.20;;;14.30;;
21677;SDS011;11000;50.360;7.582;2023-11-18T04:07:53;28.83;;;15.33;;
21677;SDS011;11000;50.360;7.582;2023-11-18T04:10:13;28.07;;;15.63;;
21677;SDS011;11000;50.360;7.582;2023-11-18T04:12:35;28.53;;;14.37;;
21677;SDS011;11000;50.360;7.582;2023-11-18T04:14:56;30.20;;;16.50;;
21677;SDS011;11000;50.360;7.582;2023-11-18T04:17:16;30.33;;;15.93;;
21677;SDS011;11000;50.360;7.582;2023-11-18T04:19:37;28.17;;;15.67;;
21677;SDS011;11000;50.360;7.582;2023-11-18T04:21:58;27.67;;;15.53;;
21677;SDS011;11000;50.360;7.582;2023-11-18T04:24:19;27.37;;;14.77;;
21677;SDS011;11000;50.360;7.582;2023-11-18T04:26:39;27.63;;;15.13;;
21677;SDS011;11000;50.360;7.582;2023-11-18T04:29:00;27.40;;;14.73;;
21677;SDS011;11000;50.360;7.582;2023-11-18T04:31:21;30.87;;;15.90;;
21677;SDS011;11000;50.360;7.582;2023-11-18T04:33:41;27.07;;;14.67;;
21677;SDS011;11000;50.360;7.582;2023-11-18T04:36:02;30.30;;;16.27;;
21677;SDS011;11000;50.360;7.582;2023-11-18T04:38:25;26.73;;;15.80;;
21677;SDS011;11000;50.360;7.582;2023-11-18T04:40:46;29.97;;;15.23;;
21677;SDS011;11000;50.360;7.582;2023-11-18T04:43:07;35.03;;;16.67;;
21677;SDS011;11000;50.360;7.582;2023-11-18T04:45:27;30.53;;;15.50;;
21677;SDS011;11000;50.360;7.582;2023-11-18T04:47:48;30.47;;;15.60;;
21677;SDS011;11000;50.360;7.582;2023-11-18T04:50:10;29.03;;;15.27;;
21677;SDS011;11000;50.360;7.582;2023-11-18T04:52:30;29.93;;;15.70;;
21677;SDS011;11000;50.360;7.582;2023-11-18T04:54:54;30.30;;;16.83;;
21677;SDS011;11000;50.360;7.582;2023-11-18T04:57:15;28.80;;;15.97;;
21677;SDS011;11000;50.360;7.582;2023-11-18T04:59:35;28.50;;;15.63;;
21677;SDS011;11000;50.360;7.582;2023-11-18T05:01:56;26.70;;;14.97;;
21677;SDS011;11000;50.360;7.582;2023-11-18T05:04:17;28.90;;;16.17;;
21677;SDS011;11000;50.360;7.582;2023-11-18T05:06:37;28.13;;;14.83;;
21677;SDS011;11000;50.360;7.582;2023-11-18T05:08:58;32.13;;;15.40;;
21677;SDS011;11000;50.360;7.582;2023-11-18T05:11:18;25.77;;;14.00;;
21677;SDS011;11000;50.360;7.582;2023-11-18T05:13:38;27.40;;;15.20;;
21677;SDS011;11000;50.360;7.582;2023-11-18T05:16:04;30.43;;;15.63;;
21677;SDS011;11000;50.360;7.582;2023-11-18T05:18:25;28.20;;;14.93;;
21677;SDS011;11000;50.360;7.582;2023-11-18T05:20:49;26.00;;;15.20;;
21677;SDS011;11000;50.360;7.582;2023-11-18T05:23:10;28.63;;;15.60;;
21677;SDS011;11000;50.360;7.582;2023-11-18T05:25:31;27.03;;;14.07;;
21677;SDS011;11000;50.360;7.582;2023-11-18T05:27:53;25.80;;;14.87;;
21677;SDS011;11000;50.360;7.582;2023-11-18T05:30:13;25.53;;;14.33;;
21677;SDS011;11000;50.360;7.582;2023-11-18T05:32:34;27.23;;;14.40;;
21677;SDS011;11000;50.360;7.582;2023-11-18T05:34:54;26.73;;;14.87;;
21677;SDS011;11000;50.360;7.582;2023-11-18T05:37:17;26.50;;;14.43;;
21677;SDS011;11000;50.360;7.582;2023-11-18T05:39:38;28.57;;;14.50;;
21677;SDS011;11000;50.360;7.582;2023-11-18T05:42:03;24.43;;;14.03;;
21677;SDS011;11000;50.360;7.582;2023-11-18T05:44:25;26.83;;;14.10;;
21677;SDS011;11000;50.360;7.582;2023-11-18T05:46:57;26.27;;;14.00;;
21677;SDS011;11000;50.360;7.582;2023-11-18T05:49:18;26.20;;;13.90;;
21677;SDS011;11000;50.360;7.582;2023-11-18T05:51:42;26.03;;;14.63;;
21677;SDS011;11000;50.360;7.582;2023-11-18T05:54:03;28.57;;;15.60;;
21677;SDS011;11000;50.360;7.582;2023-11-18T05:56:24;25.37;;;14.10;;
21677;SDS011;11000;50.360;7.582;2023-11-18T05:58:45;23.97;;;13.27;;
21677;SDS011;11000;50.360;7.582;2023-11-18T06:01:06;23.93;;;13.13;;
21677;SDS011;11000;50.360;7.582;2023-11-18T06:03:30;27.00;;;14.67;;
21677;SDS011;11000;50.360;7.582;2023-11-18T06:05:51;27.77;;;14.73;;
21677;SDS011;11000;50.360;7.582;2023-11-18T06:08:12;25.47;;;14.43;;
21677;SDS011;11000;50.360;7.582;2023-11-18T06:10:32;31.17;;;15.30;;
21677;SDS011;11000;50.360;7.582;2023-11-18T06:12:54;26.60;;;14.00;;
21677;SDS011;11000;50.360;7.582;2023-11-18T06:15:15;26.27;;;14.53;;
21677;SDS011;11000;50.360;7.582;2023-11-18T06:17:38;26.73;;;14.70;;
21677;SDS011;11000;50.360;7.582;2023-11-18T06:19:59;28.73;;;14.90;;
21677;SDS011;11000;50.360;7.582;2023-11-18T06:22:20;28.57;;;15.20;;
21677;SDS011;11000;50.360;7.582;2023-11-18T06:24:40;28.17;;;14.73;;
21677;SDS011;11000;50.360;7.582;2023-11-18T06:27:01;28.30;;;14.43;;
21677;SDS011;11000;50.360;7.582;2023-11-18T06:29:21;30.23;;;14.77;;
21677;SDS011;11000;50.360;7.582;2023-11-18T06:31:43;28.87;;;15.27;;
21677;SDS011;11000;50.360;7.582;2023-11-18T06:34:04;32.10;;;16.27;;
21677;SDS011;11000;50.360;7.582;2023-11-18T06:36:24;29.80;;;15.47;;
21677;SDS011;11000;50.360;7.582;2023-11-18T06:38:46;32.60;;;16.20;;
21677;SDS011;11000;50.360;7.582;2023-11-18T06:41:12;31.20;;;15.17;;
21677;SDS011;11000;50.360;7.582;2023-11-18T06:43:34;31.30;;;14.80;;
21677;SDS011;11000;50.360;7.582;2023-11-18T06:46:11;31.73;;;15.47;;
21677;SDS011;11000;50.360;7.582;2023-11-18T06:48:34;36.07;;;15.20;;
21677;SDS011;11000;50.360;7.582;2023-11-18T06:50:55;35.50;;;16.03;;
21677;SDS011;11000;50.360;7.582;2023-11-18T06:53:15;31.93;;;14.60;;
21677;SDS011;11000;50.360;7.582;2023-11-18T06:55:35;29.00;;;15.07;;
21677;SDS011;11000;50.360;7.582;2023-11-18T06:57:56;29.50;;;14.63;;
21677;SDS011;11000;50.360;7.582;2023-11-18T07:00:16;29.93;;;15.07;;
21677;SDS011;11000;50.360;7.582;2023-11-18T07:02:38;28.23;;;14.70;;
21677;SDS011;11000;50.360;7.582;2023-11-18T07:04:59;28.37;;;14.97;;
21677;SDS011;11000;50.360;7.582;2023-11-18T07:07:20;28.13;;;14.33;;
21677;SDS011;11000;50.360;7.582;2023-11-18T07:09:41;28.73;;;15.30;;
21677;SDS011;11000;50.360;7.582;2023-11-18T07:12:02;29.90;;;14.80;;
21677;SDS011;11000;50.360;7.582;2023-11-18T07:14:23;27.00;;;14.67;;
21677;SDS011;11000;50.360;7.582;2023-11-18T07:16:46;26.13;;;13.73;;
21677;SDS011;11000;50.360;7.582;2023-11-18T07:19:07;28.97;;;14.97;;
21677;SDS011;11000;50.360;7.582;2023-11-18T07:21:28;24.97;;;13.33;;
21677;SDS011;11000;50.360;7.582;2023-11-18T07:23:48;25.57;;;13.37;;
21677;SDS011;11000;50.360;7.582;2023-11-18T07:26:09;23.23;;;13.43;;
21677;SDS011;11000;50.360;7.582;2023-11-18T07:28:33;25.00;;;12.57;;
21677;SDS011;11000;50.360;7.582;2023-11-18T07:30:54;22.77;;;13.07;;
21677;SDS011;11000;50.360;7.582;2023-11-18T07:33:15;23.00;;;12.80;;
21677;SDS011;11000;50.360;7.582;2023-11-18T07:35:36;22.83;;;12.37;;
21677;SDS011;11000;50.360;7.582;2023-11-18T07:37:56;21.43;;;12.17;;
21677;SDS011;11000;50.360;7.582;2023-11-18T07:40:18;22.37;;;12.63;;
21677;SDS011;11000;50.360;7.582;2023-11-18T07:42:48;24.17;;;12.73;;
21677;SDS011;11000;50.360;7.582;2023-11-18T07:45:09;20.87;;;12.17;;
21677;SDS011;11000;50.360;7.582;2023-11-18T07:47:37;20.73;;;11.70;;
21677;SDS011;11000;50.360;7.582;2023-11-18T07:49:59;21.63;;;11.43;;
21677;SDS011;11000;50.360;7.582;2023-11-18T07:52:21;18.20;;;10.37;;
21677;SDS011;11000;50.360;7.582;2023-11-18T07:54:41;20.20;;;11.23;;
21677;SDS011;11000;50.360;7.582;2023-11-18T07:57:03;18.53;;;11.83;;
21677;SDS011;11000;50.360;7.582;2023-11-18T07:59:24;20.27;;;11.40;;
21677;SDS011;11000;50.360;7.582;2023-11-18T08:01:46;17.40;;;10.67;;
21677;SDS011;11000;50.360;7.582;2023-11-18T08:04:06;20.43;;;12.37;;
21677;SDS011;11000;50.360;7.582;2023-11-18T08:06:28;19.43;;;10.83;;
21677;SDS011;11000;50.360;7.582;2023-11-18T08:08:48;17.23;;;10.17;;
21677;SDS011;11000;50.360;7.582;2023-11-18T08:11:12;17.60;;;10.20;;
21677;SDS011;11000;50.360;7.582;2023-11-18T08:13:32;15.03;;;10.10;;
21677;SDS011;11000;50.360;7.582;2023-11-18T08:15:53;15.07;;;10.33;;
21677;SDS011;11000;50.360;7.582;2023-11-18T08:18:13;18.20;;;10.93;;
21677;SDS011;11000;50.360;7.582;2023-11-18T08:20:34;15.40;;;9.10;;
21677;SDS011;11000;50.360;7.582;2023-11-18T08:22:54;15.97;;;9.17;;
21677;SDS011;11000;50.360;7.582;2023-11-18T08:25:15;14.17;;;9.77;;
21677;SDS011;11000;50.360;7.582;2023-11-18T08:27:37;16.77;;;9.93;;
21677;SDS011;11000;50.360;7.582;2023-11-18T08:29:58;14.77;;;9.83;;
21677;SDS011;11000;50.360;7.582;2023-11-18T08:32:18;14.60;;;8.70;;
21677;SDS011;11000;50.360;7.582;2023-11-18T08:34:38;14.10;;;9.97;;
21677;SDS011;11000;50.360;7.582;2023-11-18T08:37:00;13.13;;;9.13;;
21677;SDS011;11000;50.360;7.582;2023-11-18T08:39:21;12.57;;;9.13;;
21677;SDS011;11000;50.360;7.582;2023-11-18T08:41:45;12.93;;;8.97;;
21677;SDS011;11000;50.360;7.582;2023-11-18T08:44:06;13.00;;;8.73;;
21677;SDS011;11000;50.360;7.582;2023-11-18T08:46:29;12.07;;;8.70;;
21677;SDS011;11000;50.360;7.582;2023-11-18T08:48:49;12.97;;;8.43;;
21677;SDS011;11000;50.360;7.582;2023-11-18T08:51:11;13.00;;;8.70;;
21677;SDS011;11000;50.360;7.582;2023-11-18T08:53:34;12.60;;;8.57;;
21677;SDS011;11000;50.360;7.582;2023-11-18T08:56:02;13.80;;;8.70;;
21677;SDS011;11000;50.360;7.582;2023-11-18T08:58:25;14.37;;;9.60;;
21677;SDS011;11000;50.360;7.582;2023-11-18T09:00:54;13.80;;;8.50;;
21677;SDS011;11000;50.360;7.582;2023-11-18T09:03:25;11.93;;;8.53;;
21677;SDS011;11000;50.360;7.582;2023-11-18T09:05:57;11.70;;;8.87;;
21677;SDS011;11000;50.360;7.582;2023-11-18T09:08:18;11.90;;;8.13;;
21677;SDS011;11000;50.360;7.582;2023-11-18T09:10:42;12.10;;;8.40;;
21677;SDS011;11000;50.360;7.582;2023-11-18T09:13:03;12.63;;;8.27;;
21677;SDS011;11000;50.360;7.582;2023-11-18T09:15:23;13.00;;;8.37;;
21677;SDS011;11000;50.360;7.582;2023-11-18T09:17:44;12.87;;;8.03;;
21677;SDS011;11000;50.360;7.582;2023-11-18T09:20:05;12.27;;;7.80;;
21677;SDS011;11000;50.360;7.582;2023-11-18T09:22:26;11.57;;;8.07;;
21677;SDS011;11000;50.360;7.582;2023-11-18T09:24:49;13.10;;;8.90;;
21677;SDS011;11000;50.360;7.582;2023-11-18T09:27:10;10.73;;;8.27;;
21677;SDS011;11000;50.360;7.582;2023-11-18T09:29:30;11.90;;;8.63;;
21677;SDS011;11000;50.360;7.582;2023-11-18T09:31:53;9.87;;;7.73;;
21677;SDS011;11000;50.360;7.582;2023-11-18T09:34:14;13.43;;;8.67;;
21677;SDS011;11000;50.360;7.582;2023-11-18T09:36:38;10.70;;;7.90;;
21677;SDS011;11000;50.360;7.582;2023-11-18T09:38:58;11.97;;;8.47;;
21677;SDS011;11000;50.360;7.582;2023-11-18T09:41:21;10.83;;;7.73;;
21677;SDS011;11000;50.360;7.582;2023-11-18T09:43:44;10.23;;;7.80;;
21677;SDS011;11000;50.360;7.582;2023-11-18T09:46:07;10.43;;;7.80;;
21677;SDS011;11000;50.360;7.582;2023-11-18T09:48:32;12.57;;;8.03;;
21677;SDS011;11000;50.360;7.582;2023-11-18T09:51:00;13.27;;;7.80;;
21677;SDS011;11000;50.360;7.582;2023-11-18T09:53:22;10.00;;;7.53;;
21677;SDS011;11000;50.360;7.582;2023-11-18T09:55:49;11.90;;;7.33;;
21677;SDS011;11000;50.360;7.582;2023-11-18T09:58:19;12.17;;;7.63;;
21677;SDS011;11000;50.360;7.582;2023-11-18T10:00:44;13.27;;;8.03;;
21677;SDS011;11000;50.360;7.582;2023-11-18T10:03:10;13.20;;;7.53;;
21677;SDS011;11000;50.360;7.582;2023-11-18T10:05:36;12.37;;;8.13;;
21677;SDS011;11000;50.360;7.582;2023-11-18T10:07:58;11.73;;;7.70;;
21677;SDS011;11000;50.360;7.582;2023-11-18T10:10:19;13.13;;;7.70;;
21677;SDS011;11000;50.360;7.582;2023-11-18T10:12:45;12.60;;;7.93;;
21677;SDS011;11000;50.360;7.582;2023-11-18T10:15:16;11.63;;;7.73;;
21677;SDS011;11000;50.360;7.582;2023-11-18T10:17:41;12.00;;;7.87;;
21677;SDS011;11000;50.360;7.582;2023-11-18T10:20:17;11.37;;;8.00;;
21677;SDS011;11000;50.360;7.582;2023-11-18T10:22:40;11.53;;;7.33;;
21677;SDS011;11000;50.360;7.582;2023-11-18T10:25:01;11.50;;;7.73;;
21677;SDS011;11000;50.360;7.582;2023-11-18T10:27:26;10.43;;;7.40;;
21677;SDS011;11000;50.360;7.582;2023-11-18T10:29:48;12.13;;;7.83;;
21677;SDS011;11000;50.360;7.582;2023-11-18T10:32:09;13.23;;;7.80;;
21677;SDS011;11000;50.360;7.582;2023-11-18T10:34:36;10.23;;;7.73;;
21677;SDS011;11000;50.360;7.582;2023-11-18T10:36:59;12.40;;;7.47;;
21677;SDS011;11000;50.360;7.582;2023-11-18T10:39:22;9.63;;;7.20;;
21677;SDS011;11000;50.360;7.582;2023-11-18T10:41:47;9.93;;;7.17;;
21677;SDS011;11000;50.360;7.582;2023-11-18T10:44:09;12.50;;;7.60;;
21677;SDS011;11000;50.360;7.582;2023-11-18T10:46:34;12.83;;;7.73;;
21677;SDS011;11000;50.360;7.582;2023-11-18T10:48:56;13.93;;;8.10;;
21677;SDS011;11000;50.360;7.582;2023-11-18T10:51:18;11.43;;;7.67;;
21677;SDS011;11000;50.360;7.582;2023-11-18T10:53:40;12.17;;;8.00;;
21677;SDS011;11000;50.360;7.582;2023-11-18T10:56:19;12.47;;;7.80;;
21677;SDS011;11000;50.360;7.582;2023-11-18T10:58:46;11.80;;;6.87;;
21677;SDS011;11000;50.360;7.582;2023-11-18T11:01:07;10.87;;;7.33;;
21677;SDS011;11000;50.360;7.582;2023-11-18T11:03:31;12.60;;;7.70;;
21677;SDS011;11000;50.360;7.582;2023-11-18T11:05:56;12.70;;;7.17;;
21677;SDS011;11000;50.360;7.582;2023-11-18T11:08:17;8.73;;;6.90;;
21677;SDS011;11000;50.360;7.582;2023-11-18T11:10:39;11.50;;;7.17;;
21677;SDS011;11000;50.360;7.582;2023-11-18T11:13:01;12.53;;;7.20;;
21677;SDS011;11000;50.360;7.582;2023-11-18T11:15:26;9.67;;;7.10;;
21677;SDS011;11000;50.360;7.582;2023-11-18T11:17:52;9.30;;;6.87;;
21677;SDS011;11000;50.360;7.582;2023-11-18T11:20:16;12.27;;;7.50;;
21677;SDS011;11000;50.360;7.582;2023-11-18T11:22:56;9.63;;;7.00;;
21677;SDS011;11000;50.360;7.582;2023-11-18T11:28:27;7.97;;;6.30;;
21677;SDS011;11000;50.360;7.582;2023-11-18T11:31:03;12.03;;;7.30;;
21677;SDS011;11000;50.360;7.582;2023-11-18T11:33:29;11.17;;;6.87;;
21677;SDS011;11000;50.360;7.582;2023-11-18T11:35:56;12.43;;;7.17;;
21677;SDS011;11000;50.360;7.582;2023-11-18T11:38:22;8.40;;;6.63;;
21677;SDS011;11000;50.360;7.582;2023-11-18T11:40:44;10.77;;;7.17;;
21677;SDS011;11000;50.360;7.582;2023-11-18T11:43:07;9.60;;;7.20;;
21677;SDS011;11000;50.360;7.582;2023-11-18T11:45:30;10.27;;;6.97;;
21677;SDS011;11000;50.360;7.582;2023-11-18T11:47:51;9.87;;;6.53;;
21677;SDS011;11000;50.360;7.582;2023-11-18T11:50:14;12.13;;;7.03;;
21677;SDS011;11000;50.360;7.582;2023-11-18T11:52:44;45.07;;;20.87;;
21677;SDS011;11000;50.360;7.582;2023-11-18T11:55:12;28.77;;;13.47;;
21677;SDS011;11000;50.360;7.582;2023-11-18T11:57:48;15.10;;;8.03;;
21677;SDS011;11000;50.360;7.582;2023-11-18T12:00:13;12.57;;;6.93;;
21677;SDS011;11000;50.360;7.582;2023-11-18T12:02:37;11.10;;;7.23;;
21677;SDS011;11000;50.360;7.582;2023-11-18T12:05:00;9.77;;;7.13;;
21677;SDS011;11000;50.360;7.582;2023-11-18T12:07:26;12.30;;;7.50;;
21677;SDS011;11000;50.360;7.582;2023-11-18T12:09:48;9.27;;;7.03;;
21677;SDS011;11000;50.360;7.582;2023-11-18T12:12:16;11.70;;;7.20;;
21677;SDS011;11000;50.360;7.582;2023-11-18T12:14:49;11.27;;;7.33;;
21677;SDS011;11000;50.360;7.582;2023-11-18T12:17:16;12.87;;;8.07;;
21677;SDS011;11000;50.360;7.582;2023-11-18T12:19:42;17.20;;;8.53;;
21677;SDS011;11000;50.360;7.582;2023-11-18T12:22:11;11.17;;;7.80;;
21677;SDS011;11000;50.360;7.582;2023-11-18T12:24:38;10.93;;;7.30;;
21677;SDS011;11000;50.360;7.582;2023-11-18T12:26:59;10.77;;;7.70;;
21677;SDS011;11000;50.360;7.582;2023-11-18T12:29:32;12.27;;;7.83;;
21677;SDS011;11000;50.360;7.582;2023-11-18T12:31:56;14.53;;;8.43;;
21677;SDS011;11000;50.360;7.582;2023-11-18T12:34:17;11.33;;;7.43;;
21677;SDS011;11000;50.360;7.582;2023-11-18T12:48:14;10.53;;;7.03;;
21677;SDS011;11000;50.360;7.582;2023-11-18T12:50:35;9.40;;;6.60;;
21677;SDS011;11000;50.360;7.582;2023-11-18T12:52:55;10.43;;;6.93;;
21677;SDS011;11000;50.360;7.582;2023-11-18T12:55:17;10.83;;;7.10;;
21677;SDS011;11000;50.360;7.582;2023-11-18T12:57:45;8.87;;;6.40;;
21677;SDS011;11000;50.360;7.582;2023-11-18T13:00:06;9.87;;;7.00;;
21677;SDS011;11000;50.360;7.582;2023-11-18T13:02:31;10.07;;;7.20;;
21677;SDS011;11000;50.360;7.582;2023-11-18T13:04:52;10.03;;;7.27;;
21677;SDS011;11000;50.360;7.582;2023-11-18T13:07:13;10.50;;;6.60;;
21677;SDS011;11000;50.360;7.582;2023-11-18T13:09:44;10.83;;;5.90;;
21677;SDS011;11000;50.360;7.582;2023-11-18T13:12:06;8.60;;;5.33;;
21677;SDS011;11000;50.360;7.582;2023-11-18T13:14:28;10.40;;;5.70;;
21677;SDS011;11000;50.360;7.582;2023-11-18T13:16:51;11.57;;;4.70;;
21677;SDS011;11000;50.360;7.582;2023-11-18T13:19:23;10.90;;;4.73;;
21677;SDS011;11000;50.360;7.582;2023-11-18T13:21:44;5.87;;;4.50;;
21677;SDS011;11000;50.360;7.582;2023-11-18T13:24:04;7.67;;;4.73;;
21677;SDS011;11000;50.360;7.582;2023-11-18T13:26:25;6.60;;;4.47;;
21677;SDS011;11000;50.360;7.582;2023-11-18T13:28:46;6.07;;;4.40;;
21677;SDS011;11000;50.360;7.582;2023-11-18T13:31:08;7.87;;;4.10;;
21677;SDS011;11000;50.360;7.582;2023-11-18T13:33:29;5.60;;;3.90;;
21677;SDS011;11000;50.360;7.582;2023-11-18T13:35:50;6.93;;;4.37;;
21677;SDS011;11000;50.360;7.582;2023-11-18T13:38:11;7.77;;;4.40;;
21677;SDS011;11000;50.360;7.582;2023-11-18T13:40:41;5.10;;;4.43;;
21677;SDS011;11000;50.360;7.582;2023-11-18T13:43:03;6.63;;;4.40;;
21677;SDS011;11000;50.360;7.582;2023-11-18T13:45:28;6.53;;;4.23;;
21677;SDS011;11000;50.360;7.582;2023-11-18T13:47:50;6.50;;;4.60;;
21677;SDS011;11000;50.360;7.582;2023-11-18T13:50:15;7.30;;;3.97;;
21677;SDS011;11000;50.360;7.582;2023-11-18T13:52:37;11.37;;;4.40;;
21677;SDS011;11000;50.360;7.582;2023-11-18T13:54:58;8.30;;;4.73;;
21677;SDS011;11000;50.360;7.582;2023-11-18T13:57:20;7.83;;;4.37;;
21677;SDS011;11000;50.360;7.582;2023-11-18T13:59:42;9.40;;;4.70;;
21677;SDS011;11000;50.360;7.582;2023-11-18T14:02:04;10.33;;;4.97;;
21677;SDS011;11000;50.360;7.582;2023-11-18T14:04:29;8.47;;;4.90;;
21677;SDS011;11000;50.360;7.582;2023-11-18T14:06:59;8.20;;;5.00;;
21677;SDS011;11000;50.360;7.582;2023-11-18T14:09:29;10.80;;;5.33;;
21677;SDS011;11000;50.360;7.582;2023-11-18T14:11:51;9.50;;;5.37;;
21677;SDS011;11000;50.360;7.582;2023-11-18T14:14:15;7.90;;;5.87;;
21677;SDS011;11000;50.360;7.582;2023-11-18T14:16:35;9.60;;;5.63;;